KCPK

Chesapeake Regional Airport

Norfolk, Virginia, USA
METAR KCPK 240135Z AUTO 00000KT 10SM CLR 20/19 A3005 RMK AO2 T02000192
Observed Flight Rules
May-24 @ 01:35 UTC (25 minutes ago) Visual Flight Rules
Visibility Clouds
10 miles
  • Clear skies
Temperatures Readings
Current 20°C / 68°F
Dewpoint 19°C / 66°F
Humidity 94%
Altimeter 30.05" Hg
Pressure 1018 hPa
Elevation 6
METAR KCPK 240135Z AUTO 00000KT 10SM CLR 20/19 A3005 RMK AO2 T02000192
Observed Flight Rules
May-24 @ 01:35 UTC
(25 minutes ago)
VFR
Clouds
  • Clear skies
Temperature Dewpoint
20°C / 68°F 19°C / 66°F
Humidity Altimeter Pressure
94% 30.05" Hg 1018 hPa